Time;durP1;ratioP1;P1;durP2;ratioP2;P2;SDS_P1;SDS_P2;PMS_P1;PMS_P2;Temp;Humidity;BMP_temperature;BMP_pressure;BME280_temperature;BME280_humidity;BME280_pressure;Samples;Min_cycle;Max_cycle;Signal;HPM_P1;HPM_P2
2022/09/07 00:00:52;;;;;;;3.47;2.63;;;20.80;91.90;;;;;;5018021;28;20075;-93
2022/09/07 00:03:18;;;;;;;2.95;2.47;;;20.70;91.80;;;;;;5018579;28;20032;-91
2022/09/07 00:05:46;;;;;;;3.72;2.60;;;20.50;92.00;;;;;;5018523;28;20037;-92
2022/09/07 00:08:17;;;;;;;3.72;2.20;;;20.40;92.30;;;;;;5018328;28;20087;-90
2022/09/07 00:10:59;;;;;;;4.43;2.33;;;20.30;92.30;;;;;;5019568;28;20060;-92
2022/09/07 00:13:27;;;;;;;2.97;2.15;;;20.30;92.40;;;;;;5018544;28;20369;-92
2022/09/07 00:15:53;;;;;;;4.18;2.38;;;20.30;92.40;;;;;;5036722;28;20029;-92
2022/09/07 00:18:19;;;;;;;4.68;2.25;;;20.30;92.40;;;;;;5007208;28;20050;-91
2022/09/07 00:20:58;;;;;;;2.75;1.80;;;20.30;92.50;;;;;;5042007;28;20013;-89
2022/09/07 00:23:25;;;;;;;3.75;2.22;;;20.50;92.60;;;;;;5041688;28;20002;-91
2022/09/07 00:25:51;;;;;;;2.47;1.95;;;20.60;92.50;;;;;;5041944;28;20013;-91
2022/09/07 00:28:16;;;;;;;3.90;2.40;;;20.70;92.50;;;;;;5041878;28;20024;-91
2022/09/07 00:30:42;;;;;;;4.13;2.83;;;20.80;92.40;;;;;;5056153;28;20040;-85
2022/09/07 00:33:08;;;;;;;3.58;2.28;;;20.70;92.30;;;;;;5021897;28;20037;-83
2022/09/07 00:35:42;;;;;;;2.42;2.00;;;20.70;92.30;;;;;;5017546;28;20056;-84
2022/09/07 00:38:11;;;;;;;2.80;2.55;;;20.70;92.40;;;;;;5017304;28;20381;-83
2022/09/07 00:40:39;;;;;;;3.60;2.20;;;20.70;92.30;;;;;;5016671;28;20017;-83
2022/09/07 00:43:34;;;;;;;3.40;2.00;;;20.80;92.30;;;;;;4984241;28;20036;-83
2022/09/07 00:46:04;;;;;;;3.50;2.05;;;20.70;92.20;;;;;;5016568;28;20033;-84
2022/09/07 00:48:47;;;;;;;3.13;2.10;;;20.70;92.30;;;;;;5020231;28;20427;-83
2022/09/07 00:51:19;;;;;;;2.70;1.95;;;20.70;92.40;;;;;;5052757;28;20033;-84
2022/09/07 00:53:53;;;;;;;2.70;2.08;;;20.70;92.30;;;;;;5036442;28;20021;-84
2022/09/07 00:56:22;;;;;;;3.30;2.00;;;20.70;92.40;;;;;;5036567;28;20128;-85
2022/09/07 00:58:53;;;;;;;4.22;2.00;;;20.60;92.40;;;;;;5036042;28;20021;-83
2022/09/07 01:01:21;;;;;;;2.75;1.88;;;20.60;92.50;;;;;;5036818;28;20029;-85
2022/09/07 01:03:49;;;;;;;2.83;1.73;;;20.60;92.60;;;;;;5036115;28;20116;-83
2022/09/07 01:06:20;;;;;;;3.83;2.10;;;20.60;92.70;;;;;;5035908;28;20480;-84
2022/09/07 01:08:51;;;;;;;3.65;1.98;;;20.70;92.70;;;;;;5036423;28;20021;-83
2022/09/07 01:11:21;;;;;;;;;;;20.70;92.60;;;;;;5036551;28;20021;-83
2022/09/07 01:13:48;;;;;;;2.20;1.40;;;20.70;92.60;;;;;;5036034;28;20368;-83
2022/09/07 01:16:23;;;;;;;2.88;1.50;;;20.70;92.50;;;;;;5035432;28;20112;-83
2022/09/07 01:19:05;;;;;;;1.83;1.17;;;20.80;92.60;;;;;;5035441;28;20021;-83
2022/09/07 01:22:00;;;;;;;3.65;1.45;;;20.70;92.40;;;;;;5052520;28;20461;-83
2022/09/07 01:24:53;;;;;;;1.88;1.23;;;20.70;92.50;;;;;;5036103;28;20384;-83
2022/09/07 01:27:39;;;;;;;2.47;1.38;;;20.70;92.40;;;;;;5036114;28;20464;-83
2022/09/07 01:30:14;;;;;;;2.60;1.25;;;20.60;92.40;;;;;;5035714;28;20068;-83
2022/09/07 01:32:42;;;;;;;2.75;1.25;;;20.50;92.50;;;;;;5035838;28;20021;-84
2022/09/07 01:35:25;;;;;;;1.15;0.90;;;20.60;92.50;;;;;;5051981;28;20059;-85
2022/09/07 01:38:16;;;;;;;2.38;1.20;;;20.60;92.60;;;;;;5035547;28;20029;-83
2022/09/07 01:41:23;;;;;;;2.72;1.33;;;20.60;92.50;;;;;;5035372;28;20037;-83
2022/09/07 01:44:09;;;;;;;3.70;1.08;;;20.60;92.40;;;;;;4992323;28;20059;-83
2022/09/07 01:46:59;;;;;;;2.60;1.02;;;20.50;92.40;;;;;;5035372;28;20048;-84
2022/09/07 01:49:52;;;;;;;3.50;1.30;;;20.50;92.30;;;;;;5035520;28;20024;-85
2022/09/07 01:52:32;;;;;;;1.80;1.13;;;20.40;92.40;;;;;;5035822;28;20112;-84
2022/09/07 01:55:30;;;;;;;4.07;1.53;;;20.40;92.40;;;;;;5035755;28;20021;-84
2022/09/07 01:57:59;;;;;;;2.90;1.33;;;20.40;92.40;;;;;;5020341;28;20304;-84
2022/09/07 02:00:25;;;;;;;2.60;1.15;;;20.40;92.40;;;;;;5051976;28;20075;-89
2022/09/07 02:02:57;;;;;;;1.45;1.05;;;20.30;92.50;;;;;;5035244;28;20029;-83
2022/09/07 02:05:35;;;;;;;1.48;0.93;;;20.30;92.50;;;;;;5035738;28;20032;-84
2022/09/07 02:08:31;;;;;;;1.52;1.08;;;20.30;92.60;;;;;;5036036;28;20029;-84
2022/09/07 02:11:21;;;;;;;2.55;1.23;;;20.40;92.60;;;;;;5014336;28;20030;-84
2022/09/07 02:13:52;;;;;;;;;;;20.30;92.60;;;;;;5024706;28;20037;-84
2022/09/07 02:16:25;;;;;;;1.98;1.08;;;20.30;92.60;;;;;;5035858;28;19904;-84
2022/09/07 02:19:07;;;;;;;1.80;0.93;;;20.30;92.60;;;;;;5054350;28;20025;-84
2022/09/07 02:21:37;;;;;;;2.70;1.20;;;20.30;92.70;;;;;;5044619;28;20028;-84
2022/09/07 02:24:10;;;;;;;1.85;0.85;;;20.30;92.70;;;;;;5045446;28;20017;-84
2022/09/07 02:26:39;;;;;;;2.40;1.25;;;20.30;92.70;;;;;;5063437;28;20025;-84
2022/09/07 02:29:06;;;;;;;2.67;1.00;;;20.20;92.70;;;;;;5063320;28;20021;-84
2022/09/07 02:31:32;;;;;;;3.30;1.23;;;20.10;92.80;;;;;;5063582;28;20029;-86
2022/09/07 02:33:59;;;;;;;1.88;1.10;;;20.10;92.90;;;;;;5055309;28;20017;-84
2022/09/07 02:36:31;;;;;;;1.83;1.10;;;20.00;93.00;;;;;;5043215;28;20025;-84
2022/09/07 02:38:56;;;;;;;1.85;1.00;;;20.00;93.10;;;;;;5045620;28;20025;-84
2022/09/07 02:41:33;;;;;;;1.20;1.00;;;20.00;93.10;;;;;;5039045;28;20446;-84
2022/09/07 02:44:01;;;;;;;1.55;1.00;;;19.90;93.20;;;;;;5038827;28;20025;-83
2022/09/07 02:46:50;;;;;;;3.40;1.05;;;19.90;93.20;;;;;;5038423;28;20128;-84
2022/09/07 02:49:56;;;;;;;1.83;1.23;;;19.90;93.30;;;;;;5038605;28;20067;-84
2022/09/07 02:52:55;;;;;;;2.50;1.15;;;19.90;93.30;;;;;;5038385;28;20159;-84
2022/09/07 02:55:33;;;;;;;1.80;1.20;;;19.80;93.30;;;;;;5038366;28;20416;-84
2022/09/07 02:58:37;;;;;;;2.28;1.20;;;19.80;93.40;;;;;;5055432;28;20409;-84
2022/09/07 03:01:17;;;;;;;2.33;1.13;;;19.80;93.50;;;;;;5037265;28;20587;-84
2022/09/07 03:04:01;;;;;;;1.85;1.02;;;19.80;93.50;;;;;;5038600;28;20037;-84
2022/09/07 03:06:41;;;;;;;1.30;1.00;;;19.90;93.50;;;;;;5038000;28;20025;-83
2022/09/07 03:09:15;;;;;;;;;;;20.00;93.50;;;;;;5038478;28;20032;-84
2022/09/07 03:11:41;;;;;;;2.60;1.00;;;20.10;93.40;;;;;;5037471;28;19912;-84
2022/09/07 03:14:23;;;;;;;3.08;1.23;;;20.10;93.30;;;;;;5037270;28;20029;-83
2022/09/07 03:16:55;;;;;;;1.25;1.10;;;20.20;93.30;;;;;;5038156;28;20059;-84
2022/09/07 03:19:20;;;;;;;1.92;1.20;;;20.30;93.30;;;;;;5038273;28;20017;-83
2022/09/07 03:21:46;;;;;;;1.95;1.17;;;20.30;93.20;;;;;;5021478;28;20075;-84
2022/09/07 03:24:14;;;;;;;2.95;1.20;;;20.40;93.20;;;;;;5037438;28;20037;-84
2022/09/07 03:26:45;;;;;;;1.20;1.02;;;20.40;93.20;;;;;;5038223;28;20486;-84
2022/09/07 03:29:11;;;;;;;2.72;1.40;;;20.50;93.10;;;;;;5037945;28;20028;-84
2022/09/07 03:31:36;;;;;;;1.48;1.25;;;20.50;93.20;;;;;;5037610;28;20021;-84
2022/09/07 03:34:02;;;;;;;2.70;1.10;;;20.50;93.20;;;;;;5037748;28;20488;-84
2022/09/07 03:36:32;;;;;;;1.63;1.27;;;20.50;93.20;;;;;;5020114;28;20045;-84
2022/09/07 03:38:58;;;;;;;2.13;1.20;;;20.60;93.20;;;;;;5037547;28;20029;-83
2022/09/07 03:41:24;;;;;;;1.52;1.23;;;20.60;93.20;;;;;;5037621;28;20075;-84
2022/09/07 03:43:50;;;;;;;2.00;1.10;;;20.60;93.20;;;;;;5020886;28;20048;-85
2022/09/07 03:46:19;;;;;;;1.98;1.30;;;20.70;93.30;;;;;;5054884;28;20084;-84
2022/09/07 03:48:46;;;;;;;1.55;1.20;;;20.80;93.30;;;;;;5021347;28;20025;-85
2022/09/07 03:51:14;;;;;;;1.42;1.23;;;20.80;93.30;;;;;;5037126;28;20503;-84
2022/09/07 03:53:42;;;;;;;2.80;2.00;;;20.80;93.20;;;;;;5037759;28;20025;-83
2022/09/07 03:56:16;;;;;;;3.00;1.60;;;20.90;93.10;;;;;;5037683;28;20029;-83
2022/09/07 03:58:43;;;;;;;1.88;1.50;;;20.90;93.20;;;;;;5037866;28;20025;-84
2022/09/07 04:01:14;;;;;;;2.22;1.50;;;20.90;93.20;;;;;;5038160;28;20025;-85
2022/09/07 04:03:41;;;;;;;2.08;1.38;;;20.90;93.20;;;;;;5038058;28;20028;-84
2022/09/07 04:06:07;;;;;;;3.08;1.52;;;21.00;93.20;;;;;;5037878;28;20025;-84
2022/09/07 04:08:35;;;;;;;2.72;1.60;;;21.00;93.20;;;;;;5037740;28;20025;-84
2022/09/07 04:11:03;;;;;;;1.73;1.52;;;21.00;93.20;;;;;;5055915;28;20495;-84
2022/09/07 04:13:31;;;;;;;1.50;1.35;;;21.00;93.10;;;;;;5038241;28;20021;-84
2022/09/07 04:15:57;;;;;;;3.28;1.80;;;21.00;93.10;;;;;;5038661;28;20036;-84
2022/09/07 04:18:23;;;;;;;2.75;1.73;;;21.00;93.10;;;;;;5063557;28;20029;-85
2022/09/07 04:20:49;;;;;;;2.00;1.30;;;21.10;93.10;;;;;;5076089;28;20071;-86
2022/09/07 04:23:16;;;;;;;1.88;1.40;;;21.10;93.10;;;;;;5060831;28;20025;-85
2022/09/07 04:25:49;;;;;;;2.55;1.55;;;21.10;93.10;;;;;;5061337;28;20048;-87
2022/09/07 04:28:16;;;;;;;4.30;1.90;;;21.10;93.10;;;;;;5060856;28;20027;-83
2022/09/07 04:30:42;;;;;;;2.00;1.77;;;21.20;93.10;;;;;;5078137;28;20028;-91
2022/09/07 04:33:08;;;;;;;2.47;1.70;;;21.20;93.10;;;;;;5059175;28;20017;-85
2022/09/07 04:35:39;;;;;;;3.47;2.10;;;21.20;93.10;;;;;;5058486;28;20020;-84
2022/09/07 04:38:12;;;;;;;2.60;2.25;;;21.20;93.10;;;;;;5021398;28;20029;-84
2022/09/07 04:40:38;;;;;;;3.30;1.63;;;21.20;93.10;;;;;;5037298;28;20029;-84
2022/09/07 04:43:04;;;;;;;2.83;2.13;;;21.20;93.10;;;;;;5036006;28;20052;-84
2022/09/07 04:45:30;;;;;;;5.15;2.60;;;21.20;93.10;;;;;;5054706;28;20068;-84
2022/09/07 04:47:56;;;;;;;3.58;2.50;;;21.20;93.10;;;;;;5035480;28;20052;-84
2022/09/07 04:50:23;;;;;;;3.85;2.85;;;21.20;93.10;;;;;;5019901;28;20045;-84
2022/09/07 04:52:49;;;;;;;3.65;2.88;;;21.20;93.10;;;;;;5019676;28;20053;-85
2022/09/07 04:55:15;;;;;;;4.65;3.03;;;21.20;93.00;;;;;;5035864;28;20064;-86
2022/09/07 04:57:41;;;;;;;3.50;2.88;;;21.20;93.00;;;;;;5035615;28;20524;-86
2022/09/07 05:00:11;;;;;;;4.03;2.88;;;21.10;93.00;;;;;;5035717;28;20116;-85
2022/09/07 05:02:37;;;;;;;3.30;2.60;;;21.10;93.00;;;;;;5036256;28;20021;-84
2022/09/07 05:05:07;;;;;;;3.17;2.88;;;21.10;92.90;;;;;;5038533;28;20017;-83
2022/09/07 05:07:38;;;;;;;3.33;2.70;;;21.10;92.90;;;;;;5041401;28;20045;-84
2022/09/07 05:10:06;;;;;;;4.03;2.83;;;21.10;93.00;;;;;;5039601;28;20040;-83
2022/09/07 05:12:38;;;;;;;5.10;3.03;;;21.00;92.90;;;;;;5055914;28;20049;-83
2022/09/07 05:15:11;;;;;;;4.70;3.00;;;21.00;93.00;;;;;;5039981;28;20025;-83
2022/09/07 05:17:44;;;;;;;3.95;2.83;;;21.00;93.00;;;;;;5037778;28;20128;-84
2022/09/07 05:20:13;;;;;;;3.05;2.75;;;21.00;93.00;;;;;;5005025;28;20040;-84
2022/09/07 05:22:39;;;;;;;4.50;3.10;;;21.00;93.00;;;;;;5036081;28;20499;-84
2022/09/07 05:25:15;;;;;;;4.75;3.05;;;21.00;92.90;;;;;;5035563;28;20044;-84
2022/09/07 05:27:56;;;;;;;3.75;3.20;;;21.00;93.00;;;;;;5035191;28;20044;-85
2022/09/07 05:30:25;;;;;;;3.88;3.10;;;21.00;93.10;;;;;;5035555;28;20296;-85
2022/09/07 05:32:53;;;;;;;4.70;3.00;;;21.00;93.10;;;;;;5035762;28;20029;-85
2022/09/07 05:35:22;;;;;;;3.65;2.65;;;21.00;93.10;;;;;;5035673;28;20076;-86
2022/09/07 05:37:49;;;;;;;5.88;3.10;;;21.00;93.20;;;;;;5035421;28;20051;-84
2022/09/07 05:40:18;;;;;;;4.28;3.28;;;21.00;93.20;;;;;;5035760;28;20032;-84
2022/09/07 05:42:45;;;;;;;5.00;4.03;;;21.00;93.20;;;;;;5035327;28;20013;-85
2022/09/07 05:45:13;;;;;;;6.45;5.38;;;21.00;93.20;;;;;;5019130;28;20119;-85
2022/09/07 05:47:41;;;;;;;6.55;5.25;;;21.00;93.20;;;;;;5034843;28;20049;-84
2022/09/07 05:50:10;;;;;;;9.20;7.55;;;21.00;93.30;;;;;;5051997;28;20354;-85
2022/09/07 05:52:36;;;;;;;8.30;6.28;;;21.00;93.30;;;;;;5035499;28;20021;-85
2022/09/07 05:55:07;;;;;;;6.72;5.95;;;21.00;93.40;;;;;;5035776;28;20100;-85
2022/09/07 05:57:33;;;;;;;7.93;6.07;;;20.90;93.40;;;;;;5003432;28;20503;-84
2022/09/07 05:59:59;;;;;;;8.25;6.43;;;20.90;93.70;;;;;;5038164;28;20116;-85
2022/09/07 06:02:25;;;;;;;8.15;7.05;;;21.00;93.50;;;;;;5055902;28;20562;-84
2022/09/07 06:04:53;;;;;;;7.05;6.45;;;21.00;93.50;;;;;;5038755;28;20017;-84
2022/09/07 06:07:22;;;;;;;7.22;6.53;;;21.00;93.50;;;;;;5022981;28;20120;-84
2022/09/07 06:09:49;;;;;;;8.23;7.43;;;21.00;93.40;;;;;;5023455;28;20468;-85
2022/09/07 06:12:18;;;;;;;9.38;7.82;;;21.00;93.50;;;;;;5040006;28;20037;-84
2022/09/07 06:14:44;;;;;;;8.20;7.40;;;21.00;93.40;;;;;;5039707;28;20507;-85
2022/09/07 06:17:09;;;;;;;8.85;7.95;;;21.00;93.40;;;;;;5046268;28;20053;-84
2022/09/07 06:19:35;;;;;;;8.45;7.60;;;21.00;93.50;;;;;;5024790;28;20049;-84
2022/09/07 06:22:01;;;;;;;11.05;9.02;;;21.00;93.40;;;;;;5041908;28;20092;-84
2022/09/07 06:24:27;;;;;;;9.63;8.63;;;21.10;93.40;;;;;;5025909;28;20013;-86
2022/09/07 06:26:52;;;;;;;10.65;9.43;;;21.00;93.40;;;;;;5063268;28;20096;-85
2022/09/07 06:29:24;;;;;;;10.63;8.18;;;21.10;93.50;;;;;;5045615;28;20028;-86
2022/09/07 06:31:49;;;;;;;11.05;9.18;;;21.10;93.50;;;;;;5063524;28;20006;-83
2022/09/07 06:34:18;;;;;;;9.60;8.68;;;21.10;93.40;;;;;;5063224;28;20032;-83
2022/09/07 06:36:46;;;;;;;8.45;7.65;;;21.10;93.40;;;;;;5019472;28;20033;-84
2022/09/07 06:39:12;;;;;;;13.57;11.57;;;21.10;93.50;;;;;;5024153;28;20028;-84
2022/09/07 06:41:37;;;;;;;11.68;10.20;;;21.10;93.40;;;;;;5022463;28;20017;-83
2022/09/07 06:44:03;;;;;;;10.50;9.50;;;21.10;93.50;;;;;;5006694;28;20088;-85
2022/09/07 06:46:29;;;;;;;10.45;9.35;;;21.10;93.50;;;;;;5022867;28;20021;-85
2022/09/07 06:48:57;;;;;;;10.25;9.13;;;21.10;93.60;;;;;;5039250;28;20428;-84
2022/09/07 06:51:27;;;;;;;10.00;8.98;;;21.10;93.50;;;;;;5039385;28;20536;-83
2022/09/07 06:53:56;;;;;;;10.03;9.03;;;21.10;93.50;;;;;;5038550;28;20021;-86
2022/09/07 06:56:26;;;;;;;9.75;8.75;;;21.20;93.50;;;;;;5038745;28;20029;-85
2022/09/07 06:58:54;;;;;;;10.57;9.18;;;21.10;93.50;;;;;;5038635;28;20148;-85
2022/09/07 07:01:22;;;;;;;9.80;8.90;;;21.10;93.50;;;;;;5037992;28;20029;-84
2022/09/07 07:03:52;;;;;;;10.50;9.50;;;21.10;93.60;;;;;;5038393;28;20025;-83
2022/09/07 07:06:18;;;;;;;10.10;9.10;;;21.10;93.60;;;;;;5037572;28;20039;-84
2022/09/07 07:08:44;;;;;;;11.52;9.60;;;21.10;93.50;;;;;;5038074;28;20460;-83
2022/09/07 07:11:12;;;;;;;11.40;9.90;;;21.10;93.40;;;;;;5037535;28;20032;-83
2022/09/07 07:13:39;;;;;;;11.48;9.88;;;21.10;93.40;;;;;;5055909;28;20472;-84
2022/09/07 07:16:09;;;;;;;10.55;9.65;;;21.10;93.40;;;;;;5037968;28;20032;-83
2022/09/07 07:18:35;;;;;;;11.23;10.02;;;21.10;93.50;;;;;;5038521;28;20025;-83
2022/09/07 07:21:03;;;;;;;11.07;9.98;;;21.00;93.50;;;;;;5037829;28;20021;-85
2022/09/07 07:23:29;;;;;;;10.52;9.05;;;21.10;93.50;;;;;;5038459;28;20025;-83
2022/09/07 07:25:55;;;;;;;9.63;8.73;;;21.10;93.50;;;;;;5055012;28;20110;-82
2022/09/07 07:28:23;;;;;;;10.60;9.50;;;21.10;93.50;;;;;;5038116;28;20032;-84
2022/09/07 07:30:56;;;;;;;11.20;10.10;;;21.10;93.50;;;;;;5020903;28;20075;-84
2022/09/07 07:34:00;;;;;;;9.45;8.48;;;21.00;93.50;;;;;;5037357;28;20047;-84
2022/09/07 07:36:27;;;;;;;10.77;9.68;;;21.00;93.60;;;;;;5037385;28;20033;-83
2022/09/07 07:38:54;;;;;;;9.65;8.75;;;21.00;93.60;;;;;;5037295;28;20060;-83
2022/09/07 07:41:27;;;;;;;10.07;8.55;;;21.00;93.50;;;;;;5036882;28;20029;-82
2022/09/07 07:43:55;;;;;;;9.65;8.73;;;21.00;93.80;;;;;;5054934;28;20053;-82
2022/09/07 07:46:22;;;;;;;10.15;9.15;;;21.00;93.70;;;;;;5037545;28;20091;-83
2022/09/07 07:48:48;;;;;;;10.25;9.15;;;21.00;93.60;;;;;;5020496;28;20049;-83
2022/09/07 07:51:14;;;;;;;11.88;9.70;;;21.00;93.60;;;;;;5053277;28;20076;-83
2022/09/07 07:53:43;;;;;;;11.95;10.65;;;21.00;93.70;;;;;;5020576;28;20029;-82
2022/09/07 07:56:09;;;;;;;11.57;10.45;;;21.10;93.70;;;;;;5036726;28;20025;-83
2022/09/07 07:58:36;;;;;;;11.88;10.75;;;21.10;93.80;;;;;;5037099;28;20452;-82
2022/09/07 08:01:09;;;;;;;12.00;10.85;;;21.10;93.80;;;;;;5037447;28;20025;-83
2022/09/07 08:03:36;;;;;;;11.43;9.85;;;21.20;93.80;;;;;;5037532;28;20021;-83
2022/09/07 08:06:18;;;;;;;13.45;10.48;;;21.20;93.70;;;;;;5037000;28;20111;-83
2022/09/07 08:08:46;;;;;;;11.57;10.35;;;21.20;93.70;;;;;;5054515;28;20377;-82
2022/09/07 08:11:18;;;;;;;11.15;10.05;;;21.20;93.60;;;;;;5020704;28;20087;-83
2022/09/07 08:13:45;;;;;;;10.18;9.18;;;21.20;93.60;;;;;;5038602;28;20021;-82
2022/09/07 08:16:12;;;;;;;12.57;9.32;;;21.30;93.60;;;;;;5037244;28;20033;-83
2022/09/07 08:18:39;;;;;;;10.98;9.88;;;21.30;93.50;;;;;;5055770;28;20021;-82
2022/09/07 08:21:14;;;;;;;10.68;9.68;;;21.40;93.60;;;;;;5037373;28;20035;-83
2022/09/07 08:23:42;;;;;;;11.35;9.68;;;21.40;93.50;;;;;;5041219;28;20027;-81
2022/09/07 08:26:08;;;;;;;10.98;9.88;;;21.40;93.60;;;;;;5043368;28;20029;-87
2022/09/07 08:28:37;;;;;;;9.93;9.00;;;21.50;93.70;;;;;;5059907;28;20040;-83
2022/09/07 08:31:05;;;;;;;10.43;9.20;;;21.50;93.80;;;;;;5077768;28;20024;-83
2022/09/07 08:33:36;;;;;;;10.85;9.50;;;21.60;93.90;;;;;;5077970;28;20029;-82
2022/09/07 08:36:03;;;;;;;;;;;21.60;93.80;;;;;;5061644;28;20013;-83
2022/09/07 08:38:31;;;;;;;11.48;10.30;;;21.60;93.80;;;;;;5059855;28;20008;-82
2022/09/07 08:40:58;;;;;;;11.55;10.02;;;21.70;93.80;;;;;;5039254;28;20067;-83
2022/09/07 08:43:53;;;;;;;12.35;10.95;;;21.70;93.70;;;;;;5021022;28;20032;-84
2022/09/07 08:46:50;;;;;;;11.32;10.20;;;21.80;93.70;;;;;;5036734;28;20073;-83
2022/09/07 08:49:30;;;;;;;10.65;9.52;;;21.90;93.80;;;;;;5036061;28;20033;-84
2022/09/07 08:52:02;;;;;;;10.40;9.30;;;22.00;93.70;;;;;;5036976;28;20021;-83
2022/09/07 08:54:31;;;;;;;10.85;9.75;;;22.00;93.60;;;;;;5036323;28;20025;-84
2022/09/07 08:57:01;;;;;;;10.88;9.88;;;22.10;93.60;;;;;;5035955;28;20064;-83
2022/09/07 08:59:38;;;;;;;12.15;10.95;;;22.20;93.70;;;;;;5036309;28;20479;-83
2022/09/07 09:02:13;;;;;;;12.90;11.60;;;22.10;93.50;;;;;;5036768;28;20083;-83
2022/09/07 09:04:42;;;;;;;11.15;9.98;;;22.10;93.50;;;;;;5036479;28;20091;-83
2022/09/07 09:07:21;;;;;;;10.98;9.93;;;22.20;93.60;;;;;;5036233;28;20025;-83
2022/09/07 09:10:33;;;;;;;11.55;10.35;;;22.20;93.60;;;;;;5035513;28;20087;-84
2022/09/07 09:13:34;;;;;;;12.52;11.30;;;22.30;93.50;;;;;;4937869;29;20027;-83
2022/09/07 09:16:24;;;;;;;10.82;9.73;;;22.30;93.70;;;;;;4937951;29;20057;-83
2022/09/07 09:19:18;;;;;;;11.63;10.50;;;22.40;93.40;;;;;;5028990;28;20079;-83
2022/09/07 09:21:45;;;;;;;11.52;10.43;;;22.40;93.30;;;;;;5036347;28;20498;-83
2022/09/07 09:24:17;;;;;;;12.38;11.18;;;22.40;93.30;;;;;;5036157;28;20128;-84
2022/09/07 09:26:49;;;;;;;10.68;9.57;;;22.40;93.30;;;;;;5053535;28;20027;-84
2022/09/07 09:29:19;;;;;;;11.48;10.38;;;22.50;93.30;;;;;;5053962;28;20468;-88
2022/09/07 09:31:45;;;;;;;11.30;10.20;;;22.50;93.40;;;;;;5035710;28;20160;-83
2022/09/07 09:34:19;;;;;;;10.98;9.88;;;22.60;93.20;;;;;;5037595;28;20013;-83
2022/09/07 09:36:55;;;;;;;10.70;9.70;;;22.60;93.10;;;;;;5040821;28;20435;-83
2022/09/07 09:39:25;;;;;;;10.40;9.40;;;22.60;93.00;;;;;;5035890;28;20033;-83
2022/09/07 09:41:52;;;;;;;10.48;8.98;;;22.70;93.00;;;;;;5040467;28;20044;-82
2022/09/07 09:44:20;;;;;;;10.70;9.70;;;22.70;93.00;;;;;;5040269;28;20056;-84
2022/09/07 09:46:49;;;;;;;10.43;9.32;;;22.80;92.90;;;;;;5038747;28;20092;-83
2022/09/07 09:49:35;;;;;;;9.45;8.50;;;22.90;92.80;;;;;;5039480;28;20045;-83
2022/09/07 09:52:03;;;;;;;9.90;8.93;;;22.90;92.70;;;;;;5053650;28;20120;-83
2022/09/07 09:54:31;;;;;;;10.48;9.48;;;22.90;92.70;;;;;;5039796;28;20472;-83
2022/09/07 09:56:58;;;;;;;10.38;9.38;;;22.90;92.60;;;;;;5039993;28;20021;-83
2022/09/07 09:59:28;;;;;;;11.38;10.15;;;22.90;92.50;;;;;;5023159;28;20491;-83
2022/09/07 10:01:55;;;;;;;9.82;8.82;;;22.90;92.50;;;;;;5057998;28;20029;-82
2022/09/07 10:04:29;;;;;;;9.45;8.48;;;23.00;92.60;;;;;;5056780;28;20378;-83
2022/09/07 10:07:21;;;;;;;10.35;9.15;;;23.10;92.50;;;;;;5039253;28;20032;-82
2022/09/07 10:09:52;;;;;;;10.23;9.23;;;23.10;92.40;;;;;;5039515;28;20048;-82
2022/09/07 10:12:24;;;;;;;9.70;8.80;;;23.10;92.30;;;;;;5022961;28;20115;-83
2022/09/07 10:14:52;;;;;;;9.80;8.90;;;23.20;92.30;;;;;;5040016;28;20029;-83
2022/09/07 10:17:32;;;;;;;10.10;9.10;;;23.30;92.30;;;;;;5040115;28;20103;-82
2022/09/07 10:20:21;;;;;;;9.90;8.95;;;23.30;92.40;;;;;;5023363;28;20481;-83
2022/09/07 10:22:53;;;;;;;9.43;8.52;;;23.30;92.10;;;;;;5027105;28;20043;-83
2022/09/07 10:25:32;;;;;;;10.77;9.68;;;23.40;92.20;;;;;;5057206;28;20029;-83
2022/09/07 10:28:16;;;;;;;10.45;8.48;;;23.40;92.10;;;;;;5038803;28;20236;-83
2022/09/07 10:31:06;;;;;;;9.88;7.65;;;23.50;92.00;;;;;;5039402;28;20028;-84
2022/09/07 10:34:00;;;;;;;7.78;7.03;;;23.50;92.00;;;;;;5069286;28;20036;-87
2022/09/07 10:36:55;;;;;;;8.60;7.40;;;23.50;92.00;;;;;;5062601;28;20020;-90
2022/09/07 10:39:32;;;;;;;8.15;6.78;;;23.60;92.00;;;;;;5054825;28;20044;-85
2022/09/07 10:42:25;;;;;;;8.80;7.25;;;23.60;91.90;;;;;;5062093;28;20021;-84
2022/09/07 10:45:00;;;;;;;7.45;6.60;;;23.70;91.90;;;;;;5061628;28;20028;-84
2022/09/07 10:47:50;;;;;;;7.72;6.90;;;23.70;92.00;;;;;;5063799;28;20088;-84
2022/09/07 10:50:18;;;;;;;7.70;6.97;;;23.80;91.60;;;;;;5038575;28;20144;-83
2022/09/07 10:52:54;;;;;;;7.00;6.30;;;23.70;91.40;;;;;;5038962;28;20025;-83
2022/09/07 10:55:48;;;;;;;6.10;5.57;;;23.80;91.30;;;;;;5037898;28;20025;-83
2022/09/07 10:58:22;;;;;;;6.45;5.63;;;23.80;91.30;;;;;;5038112;28;20071;-84
2022/09/07 11:01:07;;;;;;;7.00;6.28;;;23.90;91.20;;;;;;5038319;28;20081;-83
2022/09/07 11:04:04;;;;;;;5.93;5.22;;;23.90;91.20;;;;;;5038362;28;20535;-83
2022/09/07 11:06:45;;;;;;;6.15;4.80;;;24.00;91.30;;;;;;5037910;28;20045;-83
2022/09/07 11:09:43;;;;;;;4.93;4.43;;;24.10;91.10;;;;;;5039580;28;20347;-83
2022/09/07 11:12:20;;;;;;;5.15;4.35;;;24.20;91.00;;;;;;5038379;28;20025;-83
2022/09/07 11:15:16;;;;;;;3.95;3.55;;;24.20;90.70;;;;;;5037419;28;20461;-83
2022/09/07 11:17:56;;;;;;;7.95;3.72;;;24.20;90.60;;;;;;5054863;28;20538;-83
2022/09/07 11:20:40;;;;;;;3.95;3.40;;;24.20;90.40;;;;;;5055412;28;20025;-82
2022/09/07 11:23:31;;;;;;;4.35;3.15;;;24.30;90.20;;;;;;5054700;28;20041;-83
2022/09/07 11:26:13;;;;;;;;;;;24.30;90.10;;;;;;5038735;28;20465;-83
2022/09/07 11:29:04;;;;;;;4.75;3.42;;;24.30;90.20;;;;;;5038334;28;19909;-82
2022/09/07 11:31:52;;;;;;;4.97;3.90;;;24.30;90.00;;;;;;5038293;28;20111;-84
2022/09/07 11:34:30;;;;;;;4.00;3.50;;;24.30;89.60;;;;;;5038267;28;20528;-82
2022/09/07 11:37:05;;;;;;;4.10;3.55;;;24.30;89.80;;;;;;5038385;28;20044;-82
2022/09/07 11:39:40;;;;;;;4.05;3.13;;;24.40;89.50;;;;;;5038050;28;20039;-83
2022/09/07 11:42:17;;;;;;;4.75;3.55;;;24.40;89.30;;;;;;5038904;28;20025;-82
2022/09/07 11:44:56;;;;;;;3.42;3.10;;;24.50;89.00;;;;;;5038393;28;20028;-81
2022/09/07 11:47:26;;;;;;;4.65;3.10;;;24.60;89.00;;;;;;5037968;28;20048;-82
2022/09/07 11:49:55;;;;;;;3.92;3.03;;;24.70;88.70;;;;;;5038617;28;20025;-82
2022/09/07 11:52:29;;;;;;;3.10;2.80;;;24.70;88.50;;;;;;5038512;28;20036;-83
2022/09/07 11:55:00;;;;;;;3.15;2.78;;;24.80;89.00;;;;;;5055609;28;20024;-83
2022/09/07 11:57:41;;;;;;;3.88;2.95;;;24.80;89.00;;;;;;5037592;28;20020;-83
2022/09/07 12:00:11;;;;;;;4.47;3.65;;;24.90;88.80;;;;;;5055049;28;20141;-83
2022/09/07 12:03:07;;;;;;;3.53;3.22;;;24.90;88.00;;;;;;5038113;28;20037;-84
2022/09/07 12:05:53;;;;;;;3.83;3.10;;;24.90;87.90;;;;;;5037777;28;20428;-83
2022/09/07 12:09:00;;;;;;;4.13;2.65;;;24.90;88.00;;;;;;5037949;28;20480;-83
2022/09/07 12:12:04;;;;;;;3.28;2.80;;;25.00;87.60;;;;;;5037740;28;20033;-83
2022/09/07 12:14:47;;;;;;;3.75;2.72;;;25.10;87.50;;;;;;5054197;28;20036;-83
2022/09/07 12:17:51;;;;;;;3.70;2.67;;;25.00;87.50;;;;;;5055898;28;20115;-84
2022/09/07 12:20:19;;;;;;;3.92;2.60;;;25.00;88.00;;;;;;5038369;28;20528;-84
2022/09/07 12:23:03;;;;;;;3.38;2.70;;;25.10;88.10;;;;;;5019194;28;20131;-84
2022/09/07 12:25:32;;;;;;;4.13;2.78;;;25.10;87.60;;;;;;5038487;28;20029;-84
2022/09/07 12:27:58;;;;;;;4.88;2.60;;;25.20;87.00;;;;;;5036927;28;20084;-85
2022/09/07 12:30:23;;;;;;;3.83;3.03;;;25.10;87.00;;;;;;5020782;28;20025;-85
2022/09/07 12:32:52;;;;;;;3.45;2.55;;;25.10;87.60;;;;;;5037074;28;20024;-84
2022/09/07 12:35:30;;;;;;;4.55;2.45;;;25.10;87.30;;;;;;5037966;28;20160;-84
2022/09/07 12:38:24;;;;;;;3.95;2.03;;;25.10;86.80;;;;;;5057017;28;20072;-84
2022/09/07 12:41:00;;;;;;;2.53;1.70;;;25.20;86.60;;;;;;5038818;28;20021;-83
2022/09/07 12:43:47;;;;;;;3.75;1.73;;;25.20;86.10;;;;;;5039428;28;20029;-84
2022/09/07 12:46:32;;;;;;;4.53;1.48;;;25.20;85.60;;;;;;5055467;28;20036;-84
2022/09/07 12:49:25;;;;;;;3.92;1.30;;;25.20;85.40;;;;;;5048590;28;20036;-86
2022/09/07 12:52:40;;;;;;;4.38;1.75;;;25.30;85.90;;;;;;5077164;28;20027;-83
2022/09/07 12:55:42;;;;;;;3.33;1.58;;;25.30;84.60;;;;;;5001386;28;20048;-84
2022/09/07 12:58:30;;;;;;;3.20;1.38;;;25.30;84.20;;;;;;5045477;28;20029;-84
2022/09/07 13:01:21;;;;;;;3.80;2.00;;;25.30;84.20;;;;;;5036471;28;20017;-84
2022/09/07 13:04:05;;;;;;;;;;;25.30;83.90;;;;;;5037492;28;20423;-84
2022/09/07 13:07:08;;;;;;;3.50;1.77;;;25.20;84.20;;;;;;5036901;28;19912;-84
2022/09/07 13:09:40;;;;;;;3.90;1.75;;;25.10;84.00;;;;;;5037076;28;20022;-84
2022/09/07 13:12:45;;;;;;;3.00;1.50;;;25.20;84.00;;;;;;5031749;28;20060;-84
2022/09/07 13:15:56;;;;;;;2.50;1.30;;;25.20;84.00;;;;;;5006282;28;20087;-84
2022/09/07 13:18:28;;;;;;;4.82;1.55;;;25.20;83.60;;;;;;5032795;28;20048;-84
2022/09/07 13:21:34;;;;;;;3.15;1.50;;;25.20;82.10;;;;;;5036934;28;20032;-84
2022/09/07 13:24:19;;;;;;;3.63;1.40;;;25.30;82.50;;;;;;5026034;28;20040;-85